createdAt,value
2023-03-06T00:01:01.614Z,100200.28
2023-03-06T00:03:05.891Z,100210.06
2023-03-06T00:05:11.908Z,100210.66
2023-03-06T00:07:15.238Z,100197.31
2023-03-06T00:09:18.653Z,100185.25
2023-03-06T00:11:22.365Z,100194.03
2023-03-06T00:13:29.925Z,100193.59
2023-03-06T00:15:33.777Z,100190.59
2023-03-06T00:17:37.188Z,100191.00
2023-03-06T00:19:40.536Z,100187.47
2023-03-06T00:21:43.915Z,100183.88
2023-03-06T00:23:47.223Z,100187.69
2023-03-06T00:25:50.577Z,100185.78
2023-03-06T00:27:53.906Z,100076.41
2023-03-06T00:30:02.260Z,100178.47
2023-03-06T00:32:06.140Z,100177.97
2023-03-06T00:34:10.632Z,100173.91
2023-03-06T00:36:14.001Z,100050.75
2023-03-06T00:38:17.619Z,100171.72
2023-03-06T00:40:22.559Z,100170.72
2023-03-06T00:42:26.031Z,100176.75
2023-03-06T00:44:29.437Z,100160.38
2023-03-06T00:46:34.593Z,100164.59
2023-03-06T00:48:39.188Z,100165.38
2023-03-06T00:50:42.868Z,100153.19
2023-03-06T00:52:46.624Z,100151.38
2023-03-06T00:54:50.274Z,100126.34
2023-03-06T00:56:53.626Z,100142.31
2023-03-06T00:58:56.988Z,100145.03
2023-03-06T01:01:02.025Z,100142.31
2023-03-06T01:03:06.782Z,100136.38
2023-03-06T01:05:13.919Z,100136.50
2023-03-06T01:07:17.316Z,100120.78
2023-03-06T01:09:20.731Z,100130.97
2023-03-06T01:11:24.052Z,100127.53
2023-03-06T01:13:27.473Z,100126.69
2023-03-06T01:15:30.841Z,100126.31
2023-03-06T01:17:35.188Z,100125.38
2023-03-06T01:19:41.119Z,100120.00
2023-03-06T01:21:44.629Z,100124.53
2023-03-06T01:23:48.387Z,100099.03
2023-03-06T01:25:53.069Z,100119.41
2023-03-06T01:27:57.036Z,100116.56
2023-03-06T01:30:00.593Z,100113.22
2023-03-06T01:32:04.106Z,100114.63
2023-03-06T01:34:07.515Z,100115.72
2023-03-06T01:36:13.874Z,100101.59
2023-03-06T01:38:17.266Z,100106.72
2023-03-06T01:40:20.933Z,100093.38
2023-03-06T01:42:24.461Z,100008.56
2023-03-06T01:44:27.863Z,100099.03
2023-03-06T01:46:41.783Z,100098.22
2023-03-06T01:48:47.626Z,100091.94
2023-03-06T01:50:53.837Z,100088.06
2023-03-06T01:53:00.667Z,100085.47
2023-03-06T01:55:08.625Z,100082.72
2023-03-06T01:57:15.889Z,100088.72
2023-03-06T01:59:20.992Z,100080.53
2023-03-06T02:01:25.301Z,100083.56
2023-03-06T02:03:31.695Z,100080.72
2023-03-06T02:05:35.374Z,100057.00
2023-03-06T02:07:39.419Z,100079.56
2023-03-06T02:09:44.222Z,100074.38
2023-03-06T02:11:48.512Z,100039.56
2023-03-06T02:13:54.444Z,100066.81
2023-03-06T02:15:57.881Z,100070.00
2023-03-06T02:18:01.857Z,100061.00
2023-03-06T02:20:13.499Z,100030.59
2023-03-06T02:22:17.797Z,100064.69
2023-03-06T02:24:32.294Z,100061.72
2023-03-06T02:26:38.557Z,100051.84
2023-03-06T02:28:43.051Z,100057.59
2023-03-06T02:30:50.798Z,100039.28
2023-03-06T02:32:54.490Z,100043.19
2023-03-06T02:34:58.900Z,99974.59
2023-03-06T02:37:05.968Z,100041.22
2023-03-06T02:39:09.598Z,100048.84
2023-03-06T02:41:14.224Z,100045.47
2023-03-06T02:43:23.756Z,100036.41
2023-03-06T02:45:33.267Z,100032.13
2023-03-06T02:47:36.868Z,100041.06
2023-03-06T02:49:40.280Z,100036.41
2023-03-06T02:51:43.946Z,100027.16
2023-03-06T02:53:48.877Z,100029.72
2023-03-06T02:55:52.351Z,100013.50
2023-03-06T02:57:56.927Z,100029.31
2023-03-06T03:00:02.320Z,100024.44
2023-03-06T03:02:07.521Z,100018.69
2023-03-06T03:04:12.004Z,100015.34
2023-03-06T03:06:16.568Z,99985.69
2023-03-06T03:08:20.905Z,100021.75
2023-03-06T03:10:27.341Z,100025.03
2023-03-06T03:12:31.296Z,99974.22
2023-03-06T03:14:36.245Z,100013.75
2023-03-06T03:16:42.788Z,100015.84
2023-03-06T03:18:47.834Z,99995.50
2023-03-06T03:20:54.568Z,100007.19
2023-03-06T03:22:57.936Z,100008.00
2023-03-06T03:25:01.828Z,99998.19
2023-03-06T03:27:05.139Z,100001.69
2023-03-06T03:29:10.664Z,100004.78
2023-03-06T03:31:14.935Z,100009.81
2023-03-06T03:33:19.710Z,99998.72
2023-03-06T03:35:23.202Z,100001.31
2023-03-06T03:37:26.728Z,100001.47
2023-03-06T03:39:31.033Z,100008.88
2023-03-06T03:41:35.044Z,100007.31
2023-03-06T03:43:41.862Z,99993.50
2023-03-06T03:45:46.097Z,100005.25
2023-03-06T03:47:50.029Z,99996.69
2023-03-06T03:49:54.940Z,99994.63
2023-03-06T03:51:58.916Z,99992.41
2023-03-06T03:54:06.261Z,99987.69
2023-03-06T03:56:14.501Z,99992.09
2023-03-06T03:58:27.520Z,99989.97
2023-03-06T04:00:31.846Z,99995.38
2023-03-06T04:02:47.276Z,99980.66
2023-03-06T04:05:00.987Z,99981.41
2023-03-06T04:07:04.996Z,99975.13
2023-03-06T04:09:08.397Z,99984.00
2023-03-06T04:11:13.126Z,99979.72
2023-03-06T04:13:17.982Z,99973.91
2023-03-06T04:15:27.232Z,99971.69
2023-03-06T04:17:35.036Z,99950.81
2023-03-06T04:19:47.156Z,99960.69
2023-03-06T04:21:55.465Z,99950.97
2023-03-06T04:23:59.928Z,99949.16
2023-03-06T04:26:03.606Z,99948.00
2023-03-06T04:28:08.382Z,99948.41
2023-03-06T04:30:13.024Z,99951.06
2023-03-06T04:32:19.715Z,99942.31
2023-03-06T04:34:24.932Z,99819.91
2023-03-06T04:36:30.466Z,99942.72
2023-03-06T04:38:39.664Z,99940.41
2023-03-06T04:40:45.126Z,99907.84
2023-03-06T04:42:49.577Z,99890.59
2023-03-06T04:44:53.013Z,99936.47
2023-03-06T04:46:56.397Z,99928.69
2023-03-06T04:48:59.852Z,99896.16
2023-03-06T04:51:03.180Z,99921.06
2023-03-06T04:53:08.660Z,99927.72
2023-03-06T04:55:15.174Z,99930.41
2023-03-06T04:57:18.652Z,99921.84
2023-03-06T04:59:22.018Z,99919.19
2023-03-06T05:01:25.440Z,99922.75
2023-03-06T05:03:33.419Z,99922.91
2023-03-06T05:05:36.863Z,99924.72
2023-03-06T05:07:40.783Z,99919.50
2023-03-06T05:09:44.156Z,99921.09
2023-03-06T05:11:48.950Z,99905.28
2023-03-06T05:13:52.682Z,99914.47
2023-03-06T05:15:56.298Z,99915.22
2023-03-06T05:18:00.115Z,99919.50
2023-03-06T05:20:06.110Z,99923.47
2023-03-06T05:22:09.616Z,99911.69
2023-03-06T05:24:13.311Z,99933.56
2023-03-06T05:26:17.065Z,99921.56
2023-03-06T05:28:22.801Z,99921.84
2023-03-06T05:30:26.385Z,99928.88
2023-03-06T05:32:32.864Z,99924.91
2023-03-06T05:34:37.936Z,99929.13
2023-03-06T05:36:41.279Z,99929.28
2023-03-06T05:38:44.814Z,99910.31
2023-03-06T05:40:48.206Z,99927.13
2023-03-06T05:42:51.644Z,99920.09
2023-03-06T05:44:56.381Z,99922.78
2023-03-06T05:47:00.169Z,99908.88
2023-03-06T05:49:03.793Z,99926.59
2023-03-06T05:51:07.364Z,99902.31
2023-03-06T05:53:11.837Z,99920.66
2023-03-06T05:55:19.538Z,99903.19
2023-03-06T05:57:23.955Z,99919.84
2023-03-06T05:59:28.984Z,99911.41
2023-03-06T06:01:33.659Z,99919.44
2023-03-06T06:03:37.170Z,99830.41
2023-03-06T06:05:41.430Z,99925.06
2023-03-06T06:07:45.000Z,99920.97
2023-03-06T06:09:48.438Z,99915.72
2023-03-06T06:11:53.248Z,99918.63
2023-03-06T06:13:56.777Z,99930.38
2023-03-06T06:16:00.289Z,99916.97
2023-03-06T06:18:05.152Z,99916.81
2023-03-06T06:20:10.066Z,99901.81
2023-03-06T06:22:14.209Z,99918.41
2023-03-06T06:24:20.081Z,99924.38
2023-03-06T06:26:23.484Z,99902.38
2023-03-06T06:28:27.008Z,99914.00
2023-03-06T06:30:30.930Z,99916.81
2023-03-06T06:32:34.353Z,99920.91
2023-03-06T06:34:39.197Z,99911.56
2023-03-06T06:36:42.897Z,99913.81
2023-03-06T06:38:46.398Z,99918.19
2023-03-06T06:41:26.871Z,99918.03
2023-03-06T06:43:13.327Z,99907.59
2023-03-06T06:45:17.013Z,99912.00
2023-03-06T06:47:24.561Z,99915.03
2023-03-06T06:49:28.800Z,99913.25
2023-03-06T06:51:34.786Z,99913.31
2023-03-06T06:53:39.194Z,99904.97
2023-03-06T06:55:42.919Z,99909.09
2023-03-06T06:57:46.438Z,99868.66
2023-03-06T06:59:52.394Z,99915.50
2023-03-06T07:01:57.112Z,99918.94
2023-03-06T07:04:00.521Z,99917.09
2023-03-06T07:06:04.518Z,99919.78
2023-03-06T07:08:10.165Z,99897.03
2023-03-06T07:10:18.353Z,99925.09
2023-03-06T07:12:23.218Z,99918.25
2023-03-06T07:14:26.773Z,99924.16
2023-03-06T07:16:30.239Z,99934.09
2023-03-06T07:18:34.042Z,99909.69
2023-03-06T07:20:37.550Z,99933.84
2023-03-06T07:22:50.860Z,99899.13
2023-03-06T07:24:56.311Z,99937.06
2023-03-06T07:26:59.600Z,99939.03
2023-03-06T07:29:04.973Z,99935.97
2023-03-06T07:31:09.925Z,99886.09
2023-03-06T07:33:13.974Z,99904.84
2023-03-06T07:35:20.415Z,99939.06
2023-03-06T07:37:24.659Z,99922.47
2023-03-06T07:39:30.010Z,99932.41
2023-03-06T07:41:35.092Z,99932.47
2023-03-06T07:43:38.858Z,99942.41
2023-03-06T07:45:43.538Z,99874.28
2023-03-06T07:47:48.094Z,99928.25
2023-03-06T07:49:51.556Z,99938.44
2023-03-06T07:51:54.951Z,99937.66
2023-03-06T07:53:58.396Z,99936.13
2023-03-06T07:56:04.704Z,99906.38
2023-03-06T07:58:10.051Z,99936.00
2023-03-06T08:00:15.941Z,99919.38
2023-03-06T08:02:19.680Z,99928.41
2023-03-06T08:04:23.633Z,99942.31
2023-03-06T08:06:28.373Z,99943.19
2023-03-06T08:08:31.935Z,99902.94
2023-03-06T08:10:35.799Z,99952.59
2023-03-06T08:12:39.102Z,99941.53
2023-03-06T08:14:43.819Z,99934.75
2023-03-06T08:16:48.988Z,99939.91
2023-03-06T08:18:52.816Z,99940.78
2023-03-06T08:21:05.034Z,99937.88
2023-03-06T08:23:08.588Z,99941.88
2023-03-06T08:25:13.322Z,99894.13
2023-03-06T08:27:16.917Z,99938.69
2023-03-06T08:29:20.272Z,99939.31
2023-03-06T08:31:28.497Z,99930.34
2023-03-06T08:33:32.664Z,99935.66
2023-03-06T08:35:36.088Z,99935.91
2023-03-06T08:37:39.516Z,99936.63
2023-03-06T08:39:43.750Z,99929.44
2023-03-06T08:41:47.110Z,99927.25
2023-03-06T08:43:51.183Z,99929.72
2023-03-06T08:45:56.420Z,99932.78
2023-03-06T08:48:01.282Z,99934.16
2023-03-06T08:50:05.061Z,99884.78
2023-03-06T08:52:09.168Z,99929.09
2023-03-06T08:54:13.931Z,99926.25
2023-03-06T08:56:18.408Z,99933.19
2023-03-06T08:58:22.041Z,99935.72
2023-03-06T09:00:25.801Z,99941.81
2023-03-06T09:02:29.957Z,99935.34
2023-03-06T09:04:35.845Z,99929.94
2023-03-06T09:06:41.294Z,99929.25
2023-03-06T09:08:44.854Z,99918.28
2023-03-06T09:10:49.281Z,99918.28
2023-03-06T09:12:54.785Z,99928.63
2023-03-06T09:14:58.544Z,99925.16
2023-03-06T09:17:01.946Z,99923.59
2023-03-06T09:19:05.273Z,99940.50
2023-03-06T09:21:11.172Z,99930.66
2023-03-06T09:23:15.050Z,99931.72
2023-03-06T09:25:20.432Z,99944.91
2023-03-06T09:27:23.788Z,99936.88
2023-03-06T09:29:27.175Z,99942.75
2023-03-06T09:31:32.048Z,99915.00
2023-03-06T09:33:35.348Z,99940.13
2023-03-06T09:35:43.617Z,99940.00
2023-03-06T09:37:48.379Z,99940.13
2023-03-06T09:39:51.789Z,99937.44
2023-03-06T09:41:56.822Z,99935.41
2023-03-06T09:44:05.946Z,99929.63
2023-03-06T09:46:20.773Z,99928.59
2023-03-06T09:48:32.453Z,99940.50
2023-03-06T09:50:44.570Z,99906.81
2023-03-06T09:53:02.830Z,99936.16
2023-03-06T09:55:13.433Z,99916.94
2023-03-06T09:57:23.844Z,99930.06
2023-03-06T09:59:27.316Z,99937.97
2023-03-06T10:01:35.017Z,99932.44
2023-03-06T10:03:46.206Z,99902.00
2023-03-06T10:05:54.315Z,99918.50
2023-03-06T10:08:03.220Z,99919.66
2023-03-06T10:10:12.947Z,99922.13
2023-03-06T10:12:24.800Z,99921.97
2023-03-06T10:14:33.764Z,99882.13
2023-03-06T10:16:37.097Z,99921.19
2023-03-06T10:18:40.907Z,99922.63
2023-03-06T10:20:50.729Z,99926.47
2023-03-06T10:23:24.746Z,99920.09
2023-03-06T10:25:30.540Z,99921.13
2023-03-06T10:27:43.865Z,99920.03
2023-03-06T10:30:02.694Z,99921.91
2023-03-06T10:32:17.099Z,99921.09
2023-03-06T10:34:23.239Z,99923.44
2023-03-06T10:36:28.292Z,99925.31
2023-03-06T10:38:37.668Z,99848.47
2023-03-06T10:40:49.432Z,99917.84
2023-03-06T10:43:05.119Z,99916.84
2023-03-06T10:45:16.894Z,99937.34
2023-03-06T10:47:30.122Z,99934.28
2023-03-06T10:49:36.446Z,99935.28
2023-03-06T10:51:39.991Z,99926.13
2023-03-06T10:53:53.705Z,99929.75
2023-03-06T10:55:59.143Z,99921.00
2023-03-06T10:58:22.898Z,99938.50
2023-03-06T11:00:32.036Z,99929.38
2023-03-06T11:02:38.434Z,99916.03
2023-03-06T11:04:46.722Z,99928.47
2023-03-06T11:07:04.904Z,99916.91
2023-03-06T11:09:23.968Z,99937.53
2023-03-06T11:11:37.050Z,99935.66
2023-03-06T11:13:43.345Z,99935.88
2023-03-06T11:15:57.356Z,99931.94
2023-03-06T11:18:04.295Z,99896.00
2023-03-06T11:20:18.613Z,99907.38
2023-03-06T11:22:22.036Z,99934.91
2023-03-06T11:24:37.763Z,99932.19
2023-03-06T11:26:50.965Z,99931.06
2023-03-06T11:29:09.843Z,99928.03
2023-03-06T11:31:17.670Z,99927.66
2023-03-06T11:33:28.297Z,99939.50
2023-03-06T11:35:35.870Z,99926.84
2023-03-06T11:37:46.929Z,99926.25
2023-03-06T11:39:59.462Z,99911.53
2023-03-06T11:42:11.970Z,99905.41
2023-03-06T11:44:23.220Z,99921.97
2023-03-06T11:46:30.044Z,99917.44
2023-03-06T11:48:36.487Z,99921.44
2023-03-06T11:50:44.083Z,99921.09
2023-03-06T11:52:52.389Z,99914.44
2023-03-06T11:54:58.784Z,99912.31
2023-03-06T11:57:06.984Z,99911.09
2023-03-06T11:59:36.133Z,99916.56
2023-03-06T12:01:47.017Z,99904.34
2023-03-06T12:04:02.434Z,99915.50
2023-03-06T12:06:12.107Z,99893.50
2023-03-06T12:08:33.558Z,99908.34
2023-03-06T12:10:49.071Z,99908.84
2023-03-06T12:13:32.895Z,99899.00
2023-03-06T12:15:50.594Z,99852.09
2023-03-06T12:18:13.826Z,99902.78
2023-03-06T12:20:38.450Z,99914.38
2023-03-06T12:22:58.013Z,99908.97
2023-03-06T12:25:25.697Z,99888.03
2023-03-06T12:27:39.285Z,99902.53
2023-03-06T12:29:59.175Z,99844.31
2023-03-06T12:32:14.559Z,99900.78
2023-03-06T12:34:32.751Z,99894.94
2023-03-06T12:36:49.250Z,99895.47
2023-03-06T12:39:10.334Z,99892.28
2023-03-06T12:41:24.108Z,99887.56
2023-03-06T12:44:01.618Z,99852.63
2023-03-06T12:46:13.517Z,99885.53
2023-03-06T12:48:22.027Z,99883.88
2023-03-06T12:50:28.121Z,99884.34
2023-03-06T12:52:33.815Z,99888.22
2023-03-06T12:54:39.888Z,99884.31
2023-03-06T12:56:44.633Z,99875.38
2023-03-06T12:58:52.222Z,99886.59
2023-03-06T13:01:04.915Z,99862.75
2023-03-06T13:03:19.797Z,99888.22
2023-03-06T13:05:51.460Z,99878.09
2023-03-06T13:08:08.686Z,99880.03
2023-03-06T13:10:22.184Z,99877.56
2023-03-06T13:12:49.803Z,99873.38
2023-03-06T13:14:57.784Z,99881.34
2023-03-06T13:17:40.400Z,99874.81
2023-03-06T13:19:44.205Z,99881.19
2023-03-06T13:22:15.214Z,99880.88
2023-03-06T13:24:21.351Z,99868.19
2023-03-06T13:26:56.827Z,99867.59
2023-03-06T13:29:00.370Z,99867.34
2023-03-06T13:31:06.047Z,99875.72
2023-03-06T13:33:44.059Z,99860.41
2023-03-06T13:35:55.792Z,99863.16
2023-03-06T13:38:00.116Z,99748.59
2023-03-06T13:40:26.893Z,99863.91
2023-03-06T13:42:31.667Z,99861.59
2023-03-06T13:44:45.967Z,99816.03
2023-03-06T13:47:00.065Z,99869.44
2023-03-06T13:49:15.734Z,99865.47
2023-03-06T13:51:26.299Z,99858.69
2023-03-06T13:54:05.550Z,99857.75
2023-03-06T13:56:48.938Z,99863.19
2023-03-06T13:59:07.374Z,99867.91
2023-03-06T14:01:27.850Z,99860.34
2023-03-06T14:04:02.223Z,99859.31
2023-03-06T14:06:40.640Z,99854.63
2023-03-06T14:08:45.522Z,99853.13
2023-03-06T14:10:58.826Z,99848.09
2023-03-06T14:13:05.485Z,99843.59
2023-03-06T14:15:19.116Z,99844.63
2023-03-06T14:17:29.133Z,99839.72
2023-03-06T14:19:39.659Z,99839.72
2023-03-06T14:21:50.853Z,99844.25
2023-03-06T14:24:00.766Z,99847.31
2023-03-06T14:26:15.068Z,99841.47
2023-03-06T14:28:24.733Z,99838.25
2023-03-06T14:30:28.907Z,99838.03
2023-03-06T14:32:32.974Z,99838.06
2023-03-06T14:34:41.191Z,99836.69
2023-03-06T14:36:46.892Z,99838.84
2023-03-06T14:38:53.835Z,99801.19
2023-03-06T14:40:58.360Z,99842.75
2023-03-06T14:43:18.759Z,99838.97
2023-03-06T14:45:24.344Z,99836.28
2023-03-06T14:47:30.320Z,99830.31
2023-03-06T14:49:33.653Z,99827.09
2023-03-06T14:51:43.370Z,99824.34
2023-03-06T14:53:48.953Z,99821.19
2023-03-06T14:55:55.794Z,99828.50
2023-03-06T14:58:02.140Z,99725.19
2023-03-06T15:00:06.924Z,99825.00
2023-03-06T15:02:16.759Z,99828.78
2023-03-06T15:04:26.866Z,99818.94
2023-03-06T15:06:36.189Z,99809.28
2023-03-06T15:08:44.710Z,99807.03
2023-03-06T15:10:58.367Z,99806.19
2023-03-06T15:13:10.296Z,99812.66
2023-03-06T15:15:34.260Z,99810.00
2023-03-06T15:17:41.465Z,99814.84
2023-03-06T15:19:46.695Z,99782.88
2023-03-06T15:21:52.554Z,99800.97
2023-03-06T15:23:58.252Z,99792.56
2023-03-06T15:26:04.503Z,99802.44
2023-03-06T15:28:26.742Z,99792.53
2023-03-06T15:30:33.389Z,99798.59
2023-03-06T15:32:42.428Z,99797.13
2023-03-06T15:34:45.955Z,99804.91
2023-03-06T15:36:51.427Z,99800.81
2023-03-06T15:38:56.311Z,99810.16
2023-03-06T15:41:02.354Z,99802.72
2023-03-06T15:43:11.898Z,99800.53
2023-03-06T15:45:18.008Z,99807.19
2023-03-06T15:47:22.366Z,99796.06
2023-03-06T15:49:26.068Z,99797.47
2023-03-06T15:51:29.895Z,99791.41
2023-03-06T15:53:33.283Z,99793.19
2023-03-06T15:55:38.332Z,99791.00
2023-03-06T15:57:50.113Z,99792.38
2023-03-06T15:59:54.392Z,99785.59
2023-03-06T16:01:58.392Z,99781.25
2023-03-06T16:04:01.845Z,99786.69
2023-03-06T16:06:05.722Z,99747.38
2023-03-06T16:08:11.000Z,99738.03
2023-03-06T16:10:16.336Z,99777.81
2023-03-06T16:12:21.265Z,99774.31
2023-03-06T16:14:26.117Z,99769.25
2023-03-06T16:16:33.510Z,99774.19
2023-03-06T16:18:36.925Z,99763.25
2023-03-06T16:20:41.522Z,99768.94
2023-03-06T16:22:45.775Z,99702.06
2023-03-06T16:24:49.578Z,99758.69
2023-03-06T16:26:55.378Z,99747.28
2023-03-06T16:28:58.744Z,99745.97
2023-03-06T16:31:03.546Z,99745.91
2023-03-06T16:33:07.306Z,99749.41
2023-03-06T16:35:12.234Z,99751.41
2023-03-06T16:37:17.986Z,99749.38
2023-03-06T16:39:23.759Z,99746.38
2023-03-06T16:41:27.545Z,99746.00
2023-03-06T16:43:30.930Z,99728.03
2023-03-06T16:45:37.818Z,99738.66
2023-03-06T16:47:44.006Z,99709.09
2023-03-06T16:49:47.471Z,99743.81
2023-03-06T16:51:51.963Z,99720.56
2023-03-06T16:53:56.071Z,99743.03
2023-03-06T16:55:59.465Z,99733.78
2023-03-06T16:58:02.809Z,99741.28
2023-03-06T17:00:08.068Z,99741.88
2023-03-06T17:02:11.866Z,99749.19
2023-03-06T17:04:16.578Z,99746.88
2023-03-06T17:06:21.741Z,99735.16
2023-03-06T17:08:25.017Z,99741.63
2023-03-06T17:10:28.367Z,99734.72
2023-03-06T17:12:31.879Z,99738.66
2023-03-06T17:14:35.391Z,99732.03
2023-03-06T17:16:40.425Z,99734.06
2023-03-06T17:18:44.891Z,99725.81
2023-03-06T17:20:51.376Z,99729.13
2023-03-06T17:22:54.859Z,99731.31
2023-03-06T17:24:58.146Z,99722.25
2023-03-06T17:27:01.400Z,99718.91
2023-03-06T17:29:07.015Z,99733.75
2023-03-06T17:31:14.797Z,99718.34
2023-03-06T17:33:18.062Z,99729.03
2023-03-06T17:35:21.370Z,99722.25
2023-03-06T17:37:26.158Z,99721.47
2023-03-06T17:39:32.958Z,99711.69
2023-03-06T17:41:36.339Z,99716.13
2023-03-06T17:43:40.392Z,99717.88
2023-03-06T17:45:43.775Z,99712.19
2023-03-06T17:47:49.034Z,99718.56
2023-03-06T17:49:52.788Z,99716.78
2023-03-06T17:51:58.199Z,99712.53
2023-03-06T17:54:02.932Z,99720.38
2023-03-06T17:56:09.105Z,99675.72
2023-03-06T17:58:12.495Z,99715.78
2023-03-06T18:00:16.852Z,99720.34
2023-03-06T18:02:20.509Z,99715.34
2023-03-06T18:04:23.947Z,99711.72
2023-03-06T18:06:30.084Z,99712.78
2023-03-06T18:08:33.468Z,99707.41
2023-03-06T18:10:40.328Z,99718.78
2023-03-06T18:12:43.669Z,99715.38
2023-03-06T18:14:48.532Z,99716.28
2023-03-06T18:16:51.997Z,99710.34
2023-03-06T18:18:57.132Z,99711.81
2023-03-06T18:21:04.918Z,99714.03
2023-03-06T18:23:08.453Z,99707.75
2023-03-06T18:25:12.402Z,99709.06
2023-03-06T18:27:18.314Z,99721.47
2023-03-06T18:29:23.025Z,99703.88
2023-03-06T18:31:29.234Z,99702.53
2023-03-06T18:33:33.643Z,99699.72
2023-03-06T18:35:39.203Z,99692.66
2023-03-06T18:37:43.713Z,99704.78
2023-03-06T18:39:47.794Z,99704.41
2023-03-06T18:41:51.710Z,99697.47
2023-03-06T18:43:58.301Z,99663.06
2023-03-06T18:46:02.833Z,99692.53
2023-03-06T18:48:06.823Z,99688.28
2023-03-06T18:50:16.316Z,99691.25
2023-03-06T18:52:19.612Z,99689.19
2023-03-06T18:54:24.288Z,99683.97
2023-03-06T18:56:28.105Z,99685.66
2023-03-06T18:58:31.644Z,99685.72
2023-03-06T19:00:36.386Z,99684.94
2023-03-06T19:02:39.709Z,99665.19
2023-03-06T19:04:43.000Z,99677.66
2023-03-06T19:06:46.495Z,99676.59
2023-03-06T19:08:49.833Z,99676.81
2023-03-06T19:10:53.125Z,99671.63
2023-03-06T19:12:56.575Z,99679.09
2023-03-06T19:14:59.930Z,99667.69
2023-03-06T19:17:04.623Z,99657.22
2023-03-06T19:19:08.065Z,99654.00
2023-03-06T19:21:14.210Z,99657.63
2023-03-06T19:23:17.705Z,99657.91
2023-03-06T19:25:21.194Z,99640.56
2023-03-06T19:27:24.596Z,99654.88
2023-03-06T19:29:28.469Z,99656.38
2023-03-06T19:31:31.924Z,99651.31
2023-03-06T19:33:37.847Z,99653.06
2023-03-06T19:35:41.326Z,99646.22
2023-03-06T19:37:44.804Z,99652.38
2023-03-06T19:39:48.162Z,99531.19
2023-03-06T19:41:51.513Z,99648.31
2023-03-06T19:43:57.171Z,99600.63
2023-03-06T19:46:00.965Z,99648.63
2023-03-06T19:48:05.906Z,99647.81
2023-03-06T19:50:12.073Z,99644.84
2023-03-06T19:52:16.775Z,99637.84
2023-03-06T19:54:23.288Z,99638.34
2023-03-06T19:56:31.753Z,99633.09
2023-03-06T19:58:35.362Z,99632.41
2023-03-06T20:00:39.155Z,99628.72
2023-03-06T20:02:42.884Z,99627.16
2023-03-06T20:04:46.623Z,99628.78
2023-03-06T20:06:52.546Z,99617.72
2023-03-06T20:08:55.963Z,99624.88
2023-03-06T20:10:59.312Z,99615.22
2023-03-06T20:13:02.605Z,99620.84
2023-03-06T20:15:07.362Z,99601.28
2023-03-06T20:17:10.902Z,99609.88
2023-03-06T20:19:14.403Z,99595.47
2023-03-06T20:21:21.500Z,99602.53
2023-03-06T20:23:26.394Z,99597.72
2023-03-06T20:25:29.896Z,99590.31
2023-03-06T20:27:33.401Z,99587.91
2023-03-06T20:29:36.835Z,99582.47
2023-03-06T20:31:40.705Z,99579.81
2023-03-06T20:33:44.530Z,99586.41
2023-03-06T20:35:48.074Z,99587.94
2023-03-06T20:37:51.437Z,99588.41
2023-03-06T20:39:56.142Z,99588.41
2023-03-06T20:42:00.095Z,99582.53
2023-03-06T20:44:05.135Z,99601.41
2023-03-06T20:46:08.474Z,99585.84
2023-03-06T20:48:12.034Z,99593.22
2023-03-06T20:50:16.162Z,99584.50
2023-03-06T20:52:19.651Z,99593.69
2023-03-06T20:54:23.031Z,99581.56
2023-03-06T20:56:30.430Z,99588.34
2023-03-06T20:58:33.865Z,99569.94
2023-03-06T21:00:37.120Z,99571.13
2023-03-06T21:02:40.451Z,99567.97
2023-03-06T21:04:43.802Z,99562.59
2023-03-06T21:06:48.089Z,99553.19
2023-03-06T21:08:51.591Z,99541.97
2023-03-06T21:10:55.048Z,99555.28
2023-03-06T21:12:59.786Z,99557.16
2023-03-06T21:15:03.652Z,99551.91
2023-03-06T21:17:06.965Z,99544.59
2023-03-06T21:19:11.158Z,99544.06
2023-03-06T21:21:18.471Z,99547.56
2023-03-06T21:23:21.866Z,99541.19
2023-03-06T21:25:25.374Z,99526.34
2023-03-06T21:27:28.801Z,99531.72
2023-03-06T21:29:33.634Z,99544.72
2023-03-06T21:31:37.107Z,99527.13
2023-03-06T21:33:40.777Z,99529.09
2023-03-06T21:35:45.809Z,99524.72
2023-03-06T21:37:49.921Z,99525.44
2023-03-06T21:39:53.261Z,99520.66
2023-03-06T21:41:56.690Z,99513.53
2023-03-06T21:44:02.014Z,99509.16
2023-03-06T21:46:07.338Z,99510.56
2023-03-06T21:48:11.229Z,99392.59
2023-03-06T21:50:14.760Z,99511.81
2023-03-06T21:52:18.403Z,99506.00
2023-03-06T21:54:22.134Z,99493.63
2023-03-06T21:56:28.402Z,99506.97
2023-03-06T21:58:32.072Z,99497.56
2023-03-06T22:00:36.731Z,99491.22
2023-03-06T22:02:41.804Z,99484.06
2023-03-06T22:04:45.464Z,99452.56
2023-03-06T22:06:48.841Z,99480.84
2023-03-06T22:08:53.021Z,99457.09
2023-03-06T22:10:56.307Z,99473.59
2023-03-06T22:12:59.635Z,99477.28
2023-03-06T22:15:03.196Z,99470.94
2023-03-06T22:17:06.606Z,99465.44
2023-03-06T22:19:11.372Z,99462.47
2023-03-06T22:21:16.892Z,99456.72
2023-03-06T22:23:20.361Z,99457.78
2023-03-06T22:25:23.661Z,99453.41
2023-03-06T22:27:27.038Z,99442.19
2023-03-06T22:29:30.374Z,99442.75
2023-03-06T22:31:33.767Z,99436.94
2023-03-06T22:33:37.893Z,99431.03
2023-03-06T22:35:42.766Z,99423.03
2023-03-06T22:37:46.046Z,99430.47
2023-03-06T22:39:49.493Z,99422.63
2023-03-06T22:41:55.484Z,99416.75
2023-03-06T22:44:00.314Z,99421.00
2023-03-06T22:46:04.688Z,99416.56
2023-03-06T22:48:11.099Z,99391.47
2023-03-06T22:50:14.811Z,99408.72
2023-03-06T22:52:19.645Z,99408.28
2023-03-06T22:54:22.942Z,99406.06
2023-03-06T22:56:26.402Z,99359.88
2023-03-06T22:58:34.273Z,99407.66
2023-03-06T23:00:37.654Z,99401.25
2023-03-06T23:02:41.083Z,99403.31
2023-03-06T23:04:44.651Z,99390.56
2023-03-06T23:06:48.160Z,99388.34
2023-03-06T23:08:55.306Z,99390.03
2023-03-06T23:10:58.623Z,99389.06
2023-03-06T23:13:20.540Z,99384.94
2023-03-06T23:15:42.429Z,99381.50
2023-03-06T23:18:04.814Z,99378.03
2023-03-06T23:20:26.740Z,99379.28
2023-03-06T23:22:49.121Z,99372.13
2023-03-06T23:25:12.614Z,99376.88
2023-03-06T23:27:16.885Z,99364.34
2023-03-06T23:29:20.325Z,99366.91
2023-03-06T23:31:28.384Z,99363.16
2023-03-06T23:33:31.728Z,99363.63
2023-03-06T23:35:35.362Z,99371.34
2023-03-06T23:37:38.721Z,99365.56
2023-03-06T23:39:42.124Z,99349.34
2023-03-06T23:41:46.895Z,99348.31
2023-03-06T23:43:53.536Z,99353.47
2023-03-06T23:45:59.029Z,99357.28
2023-03-06T23:48:06.907Z,99351.84
2023-03-06T23:50:11.410Z,99342.09
2023-03-06T23:52:14.826Z,99345.81
2023-03-06T23:54:19.164Z,99342.19
2023-03-06T23:56:22.761Z,99307.16
2023-03-06T23:58:27.554Z,99350.91
